sensor_id;sensor_type;location;lat;lon;timestamp;pressure;altitude;pressure_sealevel;temperature;humidity
56402;BME280;42299;35.160;26.100;2022-12-29T00:01:03;102130.84;;;15.10;100.00
56402;BME280;42299;35.160;26.100;2022-12-29T00:02:26;102137.03;;;15.07;100.00
56402;BME280;42299;35.160;26.100;2022-12-29T00:03:48;102135.16;;;15.03;100.00
56402;BME280;42299;35.160;26.100;2022-12-29T00:05:11;102136.91;;;15.01;100.00
56402;BME280;42299;35.160;26.100;2022-12-29T00:06:33;102135.97;;;14.99;100.00
56402;BME280;42299;35.160;26.100;2022-12-29T00:07:55;102139.50;;;14.98;100.00
56402;BME280;42299;35.160;26.100;2022-12-29T00:09:18;102136.78;;;14.97;100.00
56402;BME280;42299;35.160;26.100;2022-12-29T00:10:39;102137.66;;;14.94;100.00
56402;BME280;42299;35.160;26.100;2022-12-29T00:12:03;102141.13;;;14.92;100.00
56402;BME280;42299;35.160;26.100;2022-12-29T00:13:24;102139.28;;;14.88;100.00
56402;BME280;42299;35.160;26.100;2022-12-29T00:15:00;102139.16;;;14.82;100.00
56402;BME280;42299;35.160;26.100;2022-12-29T00:16:41;102138.19;;;14.78;100.00
56402;BME280;42299;35.160;26.100;2022-12-29T00:18:04;102134.59;;;14.74;100.00
56402;BME280;42299;35.160;26.100;2022-12-29T00:19:26;102135.50;;;14.75;100.00
56402;BME280;42299;35.160;26.100;2022-12-29T00:21:15;102145.25;;;14.76;100.00
56402;BME280;42299;35.160;26.100;2022-12-29T00:22:55;102141.75;;;14.79;100.00
56402;BME280;42299;35.160;26.100;2022-12-29T00:24:34;102143.59;;;14.81;100.00
56402;BME280;42299;35.160;26.100;2022-12-29T00:26:15;102142.72;;;14.82;100.00
56402;BME280;42299;35.160;26.100;2022-12-29T00:27:55;102136.59;;;14.86;100.00
56402;BME280;42299;35.160;26.100;2022-12-29T00:29:35;102140.28;;;14.93;100.00
56402;BME280;42299;35.160;26.100;2022-12-29T00:31:15;102133.28;;;14.96;100.00
56402;BME280;42299;35.160;26.100;2022-12-29T00:32:54;102141.28;;;14.99;100.00
56402;BME280;42299;35.160;26.100;2022-12-29T00:34:34;102138.72;;;15.02;100.00
56402;BME280;42299;35.160;26.100;2022-12-29T00:36:18;102132.50;;;15.03;100.00
56402;BME280;42299;35.160;26.100;2022-12-29T00:37:46;102134.31;;;15.06;100.00
56402;BME280;42299;35.160;26.100;2022-12-29T00:39:26;102135.22;;;15.06;100.00
56402;BME280;42299;35.160;26.100;2022-12-29T00:41:05;102139.66;;;15.06;100.00
56402;BME280;42299;35.160;26.100;2022-12-29T00:42:45;102131.47;;;14.97;100.00
56402;BME280;42299;35.160;26.100;2022-12-29T00:44:24;102140.34;;;14.96;100.00
56402;BME280;42299;35.160;26.100;2022-12-29T00:45:47;102147.47;;;14.98;100.00
56402;BME280;42299;35.160;26.100;2022-12-29T00:47:08;102142.19;;;15.00;100.00
56402;BME280;42299;35.160;26.100;2022-12-29T00:48:30;102136.00;;;15.01;100.00
56402;BME280;42299;35.160;26.100;2022-12-29T00:50:10;102149.34;;;15.02;100.00
56402;BME280;42299;35.160;26.100;2022-12-29T00:51:33;102141.38;;;15.04;100.00
56402;BME280;42299;35.160;26.100;2022-12-29T00:52:55;102142.28;;;15.04;100.00
56402;BME280;42299;35.160;26.100;2022-12-29T00:54:18;102135.16;;;15.03;100.00
56402;BME280;42299;35.160;26.100;2022-12-29T00:55:39;102142.25;;;15.03;100.00
56402;BME280;42299;35.160;26.100;2022-12-29T00:57:03;102144.03;;;15.04;100.00
56402;BME280;42299;35.160;26.100;2022-12-29T00:58:27;102144.03;;;15.04;100.00
56402;BME280;42299;35.160;26.100;2022-12-29T00:59:48;102138.72;;;15.04;100.00
56402;BME280;42299;35.160;26.100;2022-12-29T01:01:11;102138.72;;;15.02;100.00
56402;BME280;42299;35.160;26.100;2022-12-29T01:02:33;102146.66;;;15.01;100.00
56402;BME280;42299;35.160;26.100;2022-12-29T01:03:56;102140.38;;;14.99;100.00
56402;BME280;42299;35.160;26.100;2022-12-29T01:05:17;102143.91;;;14.98;100.00
56402;BME280;42299;35.160;26.100;2022-12-29T01:06:41;102139.44;;;14.95;100.00
56402;BME280;42299;35.160;26.100;2022-12-29T01:08:04;102137.66;;;14.94;100.00
56402;BME280;42299;35.160;26.100;2022-12-29T01:09:27;102139.44;;;14.95;100.00
56402;BME280;42299;35.160;26.100;2022-12-29T01:11:08;102143.84;;;14.93;100.00
56402;BME280;42299;35.160;26.100;2022-12-29T01:12:29;102144.69;;;14.92;100.00
56402;BME280;42299;35.160;26.100;2022-12-29T01:14:06;102138.47;;;14.92;100.00
56402;BME280;42299;35.160;26.100;2022-12-29T01:15:28;102138.44;;;14.90;100.00
56402;BME280;42299;35.160;26.100;2022-12-29T01:16:50;102138.44;;;14.90;100.00
56402;BME280;42299;35.160;26.100;2022-12-29T01:18:11;102139.34;;;14.89;100.00
56402;BME280;42299;35.160;26.100;2022-12-29T01:19:34;102129.56;;;14.88;100.00
56402;BME280;42299;35.160;26.100;2022-12-29T01:20:59;102134.88;;;14.88;100.00
56402;BME280;42299;35.160;26.100;2022-12-29T01:22:23;102124.19;;;14.87;100.00
56402;BME280;42299;35.160;26.100;2022-12-29T01:23:46;102130.41;;;14.87;100.00
56402;BME280;42299;35.160;26.100;2022-12-29T01:25:07;102125.97;;;14.86;100.00
56402;BME280;42299;35.160;26.100;2022-12-29T01:26:32;102117.09;;;14.86;100.00
56402;BME280;42299;35.160;26.100;2022-12-29T01:27:54;102115.28;;;14.85;100.00
56402;BME280;42299;35.160;26.100;2022-12-29T01:29:16;102106.41;;;14.84;100.00
56402;BME280;42299;35.160;26.100;2022-12-29T01:30:39;102120.56;;;14.82;100.00
56402;BME280;42299;35.160;26.100;2022-12-29T01:32:02;102119.63;;;14.80;100.00
56402;BME280;42299;35.160;26.100;2022-12-29T01:33:25;102113.41;;;14.79;100.00
56402;BME280;42299;35.160;26.100;2022-12-29T01:34:46;102114.25;;;14.78;100.00
56402;BME280;42299;35.160;26.100;2022-12-29T01:36:10;102120.44;;;14.77;100.00
56402;BME280;42299;35.160;26.100;2022-12-29T01:37:33;102111.56;;;14.75;100.00
56402;BME280;42299;35.160;26.100;2022-12-29T01:38:56;102113.28;;;14.73;100.00
56402;BME280;42299;35.160;26.100;2022-12-29T01:40:18;102112.38;;;14.72;100.00
56402;BME280;42299;35.160;26.100;2022-12-29T01:41:40;102115.00;;;14.71;100.00
56402;BME280;42299;35.160;26.100;2022-12-29T01:43:04;102115.91;;;14.70;100.00
56402;BME280;42299;35.160;26.100;2022-12-29T01:44:49;102113.16;;;14.67;100.00
56402;BME280;42299;35.160;26.100;2022-12-29T01:46:18;102121.13;;;14.67;100.00
56402;BME280;42299;35.160;26.100;2022-12-29T01:47:47;102113.97;;;14.64;100.00
56402;BME280;42299;35.160;26.100;2022-12-29T01:49:13;102119.34;;;14.66;100.00
56402;BME280;42299;35.160;26.100;2022-12-29T01:50:40;102115.84;;;14.68;100.00
56402;BME280;42299;35.160;26.100;2022-12-29T01:52:06;102120.31;;;14.71;100.00
56402;BME280;42299;35.160;26.100;2022-12-29T01:53:32;102116.84;;;14.73;100.00
56402;BME280;42299;35.160;26.100;2022-12-29T01:54:58;102116.88;;;14.75;100.00
56402;BME280;42299;35.160;26.100;2022-12-29T01:56:21;102112.47;;;14.77;100.00
56402;BME280;42299;35.160;26.100;2022-12-29T01:57:46;102115.13;;;14.77;100.00
56402;BME280;42299;35.160;26.100;2022-12-29T01:59:14;102116.06;;;14.79;100.00
56402;BME280;42299;35.160;26.100;2022-12-29T02:00:37;102112.50;;;14.79;100.00
56402;BME280;42299;35.160;26.100;2022-12-29T02:02:00;102112.53;;;14.80;100.00
56402;BME280;42299;35.160;26.100;2022-12-29T02:03:24;102111.59;;;14.78;100.00
56402;BME280;42299;35.160;26.100;2022-12-29T02:04:47;102117.81;;;14.79;100.00
56402;BME280;42299;35.160;26.100;2022-12-29T02:06:15;102113.41;;;14.79;100.00
56402;BME280;42299;35.160;26.100;2022-12-29T02:07:39;102123.22;;;14.82;100.00
56402;BME280;42299;35.160;26.100;2022-12-29T02:09:06;102118.84;;;14.85;100.00
56402;BME280;42299;35.160;26.100;2022-12-29T02:10:31;102112.69;;;14.88;100.00
56402;BME280;42299;35.160;26.100;2022-12-29T02:11:54;102112.69;;;14.88;100.00
56402;BME280;42299;35.160;26.100;2022-12-29T02:13:17;102114.47;;;14.87;100.00
56402;BME280;42299;35.160;26.100;2022-12-29T02:14:38;102118.75;;;14.81;100.00
56402;BME280;42299;35.160;26.100;2022-12-29T02:16:06;102124.09;;;14.81;100.00
56402;BME280;42299;35.160;26.100;2022-12-29T02:17:45;102115.19;;;14.80;100.00
56402;BME280;42299;35.160;26.100;2022-12-29T02:21:39;102123.88;;;14.71;100.00
56402;BME280;42299;35.160;26.100;2022-12-29T02:23:20;102115.81;;;14.67;100.00
56402;BME280;42299;35.160;26.100;2022-12-29T02:27:22;102105.06;;;14.61;100.00
56402;BME280;42299;35.160;26.100;2022-12-29T02:29:15;102106.00;;;14.63;100.00
56402;BME280;42299;35.160;26.100;2022-12-29T02:30:52;102107.75;;;14.62;100.00
56402;BME280;42299;35.160;26.100;2022-12-29T02:32:23;102111.31;;;14.63;100.00
56402;BME280;42299;35.160;26.100;2022-12-29T02:33:56;102112.13;;;14.60;100.00
56402;BME280;42299;35.160;26.100;2022-12-29T02:35:27;102110.38;;;14.61;100.00
56402;BME280;42299;35.160;26.100;2022-12-29T02:37:00;102109.53;;;14.62;100.00
56402;BME280;42299;35.160;26.100;2022-12-29T02:38:33;102106.94;;;14.66;100.00
56402;BME280;42299;35.160;26.100;2022-12-29T02:40:04;102108.69;;;14.66;100.00
56402;BME280;42299;35.160;26.100;2022-12-29T02:41:32;102109.59;;;14.66;100.00
56402;BME280;42299;35.160;26.100;2022-12-29T02:42:59;102110.50;;;14.67;100.00
56402;BME280;42299;35.160;26.100;2022-12-29T02:44:27;102112.31;;;14.68;100.00
56402;BME280;42299;35.160;26.100;2022-12-29T02:45:54;102107.91;;;14.70;100.00
56402;BME280;42299;35.160;26.100;2022-12-29T02:47:26;102106.13;;;14.69;100.00
56402;BME280;42299;35.160;26.100;2022-12-29T02:48:55;102108.78;;;14.69;100.00
56402;BME280;42299;35.160;26.100;2022-12-29T02:50:25;102109.66;;;14.68;100.00
56402;BME280;42299;35.160;26.100;2022-12-29T02:51:52;102109.66;;;14.68;100.00
56402;BME280;42299;35.160;26.100;2022-12-29T02:53:19;102104.28;;;14.66;100.00
56402;BME280;42299;35.160;26.100;2022-12-29T02:55:03;102103.34;;;14.64;100.00
56402;BME280;42299;35.160;26.100;2022-12-29T02:56:25;102105.09;;;14.64;100.00
56402;BME280;42299;35.160;26.100;2022-12-29T02:57:47;102101.47;;;14.59;100.00
56402;BME280;42299;35.160;26.100;2022-12-29T02:59:10;102105.91;;;14.60;100.00
56402;BME280;42299;35.160;26.100;2022-12-29T03:00:34;102104.25;;;14.63;100.00
56402;BME280;42299;35.160;26.100;2022-12-29T03:02:23;102099.78;;;14.64;100.00
56402;BME280;42299;35.160;26.100;2022-12-29T03:04:03;102100.66;;;14.61;100.00
56402;BME280;42299;35.160;26.100;2022-12-29T03:07:24;102107.72;;;14.61;100.00
56402;BME280;42299;35.160;26.100;2022-12-29T03:08:55;102105.09;;;14.64;100.00
56402;BME280;42299;35.160;26.100;2022-12-29T03:10:30;102109.66;;;14.68;100.00
56402;BME280;42299;35.160;26.100;2022-12-29T03:11:59;102108.78;;;14.70;100.00
56402;BME280;42299;35.160;26.100;2022-12-29T03:13:29;102104.31;;;14.68;100.00
56402;BME280;42299;35.160;26.100;2022-12-29T03:15:14;102114.16;;;14.72;100.00
56402;BME280;42299;35.160;26.100;2022-12-29T03:17:00;102113.38;;;14.77;100.00
56402;BME280;42299;35.160;26.100;2022-12-29T03:18:34;102112.59;;;14.82;100.00
56402;BME280;42299;35.160;26.100;2022-12-29T03:20:01;102114.38;;;14.84;100.00
56402;BME280;42299;35.160;26.100;2022-12-29T03:21:32;102119.75;;;14.86;100.00
56402;BME280;42299;35.160;26.100;2022-12-29T03:23:14;102117.94;;;14.83;100.00
56402;BME280;42299;35.160;26.100;2022-12-29T03:24:41;102118.81;;;14.84;100.00
56402;BME280;42299;35.160;26.100;2022-12-29T03:26:08;102125.03;;;14.84;100.00
56402;BME280;42299;35.160;26.100;2022-12-29T03:27:35;102121.47;;;14.84;100.00
56402;BME280;42299;35.160;26.100;2022-12-29T03:28:59;102128.56;;;14.85;100.00
56402;BME280;42299;35.160;26.100;2022-12-29T03:30:24;102123.25;;;14.85;100.00
56402;BME280;42299;35.160;26.100;2022-12-29T03:31:49;102125.97;;;14.86;100.00
56402;BME280;42299;35.160;26.100;2022-12-29T03:33:17;102129.53;;;14.87;100.00
56402;BME280;42299;35.160;26.100;2022-12-29T03:34:45;102126.91;;;14.88;100.00
56402;BME280;42299;35.160;26.100;2022-12-29T03:36:11;102127.75;;;14.87;100.00
56402;BME280;42299;35.160;26.100;2022-12-29T03:37:39;102128.63;;;14.86;100.00
56402;BME280;42299;35.160;26.100;2022-12-29T03:39:08;102133.06;;;14.87;100.00
56402;BME280;42299;35.160;26.100;2022-12-29T03:40:33;102140.19;;;14.88;100.00
56402;BME280;42299;35.160;26.100;2022-12-29T03:41:58;102135.78;;;14.89;100.00
56402;BME280;42299;35.160;26.100;2022-12-29T03:43:22;102138.44;;;14.89;100.00
56402;BME280;42299;35.160;26.100;2022-12-29T03:44:44;102134.91;;;14.91;100.00
56402;BME280;42299;35.160;26.100;2022-12-29T03:46:08;102135.84;;;14.93;100.00
56402;BME280;42299;35.160;26.100;2022-12-29T03:47:32;102139.41;;;14.94;100.00
56402;BME280;42299;35.160;26.100;2022-12-29T03:48:55;102136.78;;;14.95;100.00
56402;BME280;42299;35.160;26.100;2022-12-29T03:50:19;102139.47;;;14.97;100.00
56402;BME280;42299;35.160;26.100;2022-12-29T03:51:41;102144.78;;;14.97;100.00
56402;BME280;42299;35.160;26.100;2022-12-29T03:53:04;102135.94;;;14.96;100.00
56402;BME280;42299;35.160;26.100;2022-12-29T03:54:26;102148.28;;;14.94;100.00
56402;BME280;42299;35.160;26.100;2022-12-29T03:55:48;102142.91;;;14.91;100.00
56402;BME280;42299;35.160;26.100;2022-12-29T03:57:11;102148.16;;;14.88;100.00
56402;BME280;42299;35.160;26.100;2022-12-29T03:58:52;102148.13;;;14.87;100.00
56402;BME280;42299;35.160;26.100;2022-12-29T04:00:23;102150.75;;;14.85;100.00
56402;BME280;42299;35.160;26.100;2022-12-29T04:01:44;102149.84;;;14.85;100.00
56402;BME280;42299;35.160;26.100;2022-12-29T04:03:07;102152.50;;;14.83;100.00
56402;BME280;42299;35.160;26.100;2022-12-29T04:04:29;102146.25;;;14.81;100.00
56402;BME280;42299;35.160;26.100;2022-12-29T04:05:53;102153.25;;;14.77;100.00
56402;BME280;42299;35.160;26.100;2022-12-29T04:07:16;102152.22;;;14.71;100.00
56402;BME280;42299;35.160;26.100;2022-12-29T04:08:37;102146.81;;;14.66;100.00
56402;BME280;42299;35.160;26.100;2022-12-29T04:10:00;102148.53;;;14.64;100.00
56402;BME280;42299;35.160;26.100;2022-12-29T04:11:23;102152.91;;;14.61;100.00
56402;BME280;42299;35.160;26.100;2022-12-29T04:12:44;102158.25;;;14.62;100.00
56402;BME280;42299;35.160;26.100;2022-12-29T04:14:08;102155.56;;;14.61;100.00
56402;BME280;42299;35.160;26.100;2022-12-29T04:15:30;102152.03;;;14.62;100.00
56402;BME280;42299;35.160;26.100;2022-12-29T04:16:53;102164.47;;;14.63;100.00
56402;BME280;42299;35.160;26.100;2022-12-29T04:18:14;102158.31;;;14.65;100.00
56402;BME280;42299;35.160;26.100;2022-12-29T04:19:37;102151.31;;;14.69;100.00
56402;BME280;42299;35.160;26.100;2022-12-29T04:21:00;102154.91;;;14.72;100.00
56402;BME280;42299;35.160;26.100;2022-12-29T04:22:24;102156.72;;;14.73;100.00
56402;BME280;42299;35.160;26.100;2022-12-29T04:23:46;102159.47;;;14.78;100.00
56402;BME280;42299;35.160;26.100;2022-12-29T04:25:09;102163.03;;;14.79;100.00
56402;BME280;42299;35.160;26.100;2022-12-29T04:26:31;102162.13;;;14.78;100.00
56402;BME280;42299;35.160;26.100;2022-12-29T04:28:14;102166.53;;;14.76;100.00
56402;BME280;42299;35.160;26.100;2022-12-29T04:29:48;102167.44;;;14.77;100.00
56402;BME280;42299;35.160;26.100;2022-12-29T04:31:30;102169.03;;;14.68;100.00
56402;BME280;42299;35.160;26.100;2022-12-29T04:32:53;102175.25;;;14.69;100.00
56402;BME280;42299;35.160;26.100;2022-12-29T04:34:17;102173.47;;;14.71;100.00
56402;BME280;42299;35.160;26.100;2022-12-29T04:35:42;102177.03;;;14.70;100.00
56402;BME280;42299;35.160;26.100;2022-12-29T04:37:05;102166.41;;;14.70;100.00
56402;BME280;42299;35.160;26.100;2022-12-29T04:38:27;102175.25;;;14.69;100.00
56402;BME280;42299;35.160;26.100;2022-12-29T04:39:50;102168.09;;;14.66;100.00
56402;BME280;42299;35.160;26.100;2022-12-29T04:41:11;102179.53;;;14.62;100.00
56402;BME280;42299;35.160;26.100;2022-12-29T04:42:35;102182.16;;;14.61;100.00
56402;BME280;42299;35.160;26.100;2022-12-29T04:43:57;102185.66;;;14.60;100.00
56402;BME280;42299;35.160;26.100;2022-12-29T04:45:30;102180.34;;;14.60;100.00
56402;BME280;42299;35.160;26.100;2022-12-29T04:47:04;102186.56;;;14.60;100.00
56402;BME280;42299;35.160;26.100;2022-12-29T04:48:41;102183.84;;;14.59;100.00
56402;BME280;42299;35.160;26.100;2022-12-29T04:50:25;102178.59;;;14.60;100.00
56402;BME280;42299;35.160;26.100;2022-12-29T04:52:00;102186.66;;;14.63;100.00
56402;BME280;42299;35.160;26.100;2022-12-29T04:53:23;102182.19;;;14.64;100.00
56402;BME280;42299;35.160;26.100;2022-12-29T04:54:47;102186.69;;;14.66;100.00
56402;BME280;42299;35.160;26.100;2022-12-29T04:56:12;102192.94;;;14.68;100.00
56402;BME280;42299;35.160;26.100;2022-12-29T04:57:35;102193.00;;;14.70;100.00
56402;BME280;42299;35.160;26.100;2022-12-29T04:58:57;102194.72;;;14.68;100.00
56402;BME280;42299;35.160;26.100;2022-12-29T05:00:21;102198.13;;;14.64;100.00
56402;BME280;42299;35.160;26.100;2022-12-29T05:01:43;102199.88;;;14.62;100.00
56402;BME280;42299;35.160;26.100;2022-12-29T05:03:04;102203.31;;;14.58;100.00
56402;BME280;42299;35.160;26.100;2022-12-29T05:04:27;102205.06;;;14.56;100.00
56402;BME280;42299;35.160;26.100;2022-12-29T05:05:48;102204.03;;;14.51;100.00
56402;BME280;42299;35.160;26.100;2022-12-29T05:07:11;102196.03;;;14.48;100.00
56402;BME280;42299;35.160;26.100;2022-12-29T05:08:34;102201.25;;;14.43;100.00
56402;BME280;42299;35.160;26.100;2022-12-29T05:09:57;102204.72;;;14.41;100.00
56402;BME280;42299;35.160;26.100;2022-12-29T05:11:18;102201.97;;;14.38;100.00
56402;BME280;42299;35.160;26.100;2022-12-29T05:12:44;102206.34;;;14.35;100.00
56402;BME280;42299;35.160;26.100;2022-12-29T05:14:08;102208.06;;;14.33;100.00
56402;BME280;42299;35.160;26.100;2022-12-29T05:15:31;102203.56;;;14.31;100.00
56402;BME280;42299;35.160;26.100;2022-12-29T05:16:53;102211.41;;;14.26;100.00
56402;BME280;42299;35.160;26.100;2022-12-29T05:18:15;102206.94;;;14.24;100.00
56402;BME280;42299;35.160;26.100;2022-12-29T05:19:38;102206.00;;;14.22;100.00
56402;BME280;42299;35.160;26.100;2022-12-29T05:21:00;102212.19;;;14.21;100.00
56402;BME280;42299;35.160;26.100;2022-12-29T05:22:22;102207.63;;;14.15;100.00
56402;BME280;42299;35.160;26.100;2022-12-29T05:23:46;102214.63;;;14.13;100.00
56402;BME280;42299;35.160;26.100;2022-12-29T05:25:09;102211.13;;;14.14;100.00
56402;BME280;42299;35.160;26.100;2022-12-29T05:26:43;102210.22;;;14.14;100.00
56402;BME280;42299;35.160;26.100;2022-12-29T05:28:26;102218.16;;;14.12;100.00
56402;BME280;42299;35.160;26.100;2022-12-29T05:29:52;102210.22;;;14.14;100.00
56402;BME280;42299;35.160;26.100;2022-12-29T05:31:15;102215.53;;;14.14;100.00
56402;BME280;42299;35.160;26.100;2022-12-29T05:32:37;102217.28;;;14.13;100.00
56402;BME280;42299;35.160;26.100;2022-12-29T05:33:59;102213.75;;;14.13;100.00
56402;BME280;42299;35.160;26.100;2022-12-29T05:35:22;102220.91;;;14.15;100.00
56402;BME280;42299;35.160;26.100;2022-12-29T05:36:45;102214.72;;;14.16;100.00
56402;BME280;42299;35.160;26.100;2022-12-29T05:38:09;102210.31;;;14.17;100.00
56402;BME280;42299;35.160;26.100;2022-12-29T05:39:32;102212.09;;;14.18;100.00
56402;BME280;42299;35.160;26.100;2022-12-29T05:40:57;102219.19;;;14.17;100.00
56402;BME280;42299;35.160;26.100;2022-12-29T05:42:39;102215.53;;;14.14;100.00
56402;BME280;42299;35.160;26.100;2022-12-29T05:44:20;102218.16;;;14.12;100.00
56402;BME280;42299;35.160;26.100;2022-12-29T05:45:48;102215.50;;;14.12;100.00
56402;BME280;42299;35.160;26.100;2022-12-29T05:47:29;102224.38;;;14.13;100.00
56402;BME280;42299;35.160;26.100;2022-12-29T05:49:10;102230.63;;;14.15;100.00
56402;BME280;42299;35.160;26.100;2022-12-29T05:51:05;102228.00;;;14.16;100.00
56402;BME280;42299;35.160;26.100;2022-12-29T05:52:39;102235.13;;;14.17;100.00
56402;BME280;42299;35.160;26.100;2022-12-29T05:54:02;102228.94;;;14.18;100.00
56402;BME280;42299;35.160;26.100;2022-12-29T05:55:27;102228.94;;;14.18;100.00
56402;BME280;42299;35.160;26.100;2022-12-29T05:56:49;102234.31;;;14.21;100.00
56402;BME280;42299;35.160;26.100;2022-12-29T05:58:12;102233.50;;;14.24;100.00
56402;BME280;42299;35.160;26.100;2022-12-29T05:59:35;102239.78;;;14.27;100.00
56402;BME280;42299;35.160;26.100;2022-12-29T06:00:58;102238.00;;;14.26;100.00
56402;BME280;42299;35.160;26.100;2022-12-29T06:02:21;102236.28;;;14.28;100.00
56402;BME280;42299;35.160;26.100;2022-12-29T06:03:44;102231.88;;;14.29;100.00
56402;BME280;42299;35.160;26.100;2022-12-29T06:05:07;102230.97;;;14.28;100.00
56402;BME280;42299;35.160;26.100;2022-12-29T06:06:30;102234.38;;;14.24;100.00
56402;BME280;42299;35.160;26.100;2022-12-29T06:07:53;102235.19;;;14.20;100.00
56402;BME280;42299;35.160;26.100;2022-12-29T06:09:14;102226.22;;;14.15;100.00
56402;BME280;42299;35.160;26.100;2022-12-29T06:10:39;102227.88;;;14.10;100.00
56402;BME280;42299;35.160;26.100;2022-12-29T06:12:03;102235.69;;;14.04;100.00
56402;BME280;42299;35.160;26.100;2022-12-29T06:13:24;102236.34;;;13.95;100.00
56402;BME280;42299;35.160;26.100;2022-12-29T06:14:49;102238.03;;;13.93;100.00
56402;BME280;42299;35.160;26.100;2022-12-29T06:16:11;102240.69;;;13.93;100.00
56402;BME280;42299;35.160;26.100;2022-12-29T06:17:34;102243.41;;;13.95;100.00
56402;BME280;42299;35.160;26.100;2022-12-29T06:18:58;102239.91;;;13.96;100.00
56402;BME280;42299;35.160;26.100;2022-12-29T06:20:21;102239.03;;;13.97;100.00
56402;BME280;42299;35.160;26.100;2022-12-29T06:21:43;102255.88;;;13.99;100.00
56402;BME280;42299;35.160;26.100;2022-12-29T06:23:06;102247.91;;;13.99;100.00
56402;BME280;42299;35.160;26.100;2022-12-29T06:24:28;102249.75;;;14.02;100.00
56402;BME280;42299;35.160;26.100;2022-12-29T06:25:53;102251.63;;;14.04;100.00
56402;BME280;42299;35.160;26.100;2022-12-29T06:27:16;102254.28;;;14.06;100.00
56402;BME280;42299;35.160;26.100;2022-12-29T06:28:38;102251.63;;;14.06;100.00
56402;BME280;42299;35.160;26.100;2022-12-29T06:30:01;102259.63;;;14.07;100.00
56402;BME280;42299;35.160;26.100;2022-12-29T06:31:22;102257.97;;;14.11;100.00
56402;BME280;42299;35.160;26.100;2022-12-29T06:32:45;102259.00;;;14.16;100.00
56402;BME280;42299;35.160;26.100;2022-12-29T06:34:07;102260.06;;;14.24;100.00
56402;BME280;42299;35.160;26.100;2022-12-29T06:35:31;102261.13;;;14.30;100.00
56402;BME280;42299;35.160;26.100;2022-12-29T06:36:53;102262.94;;;14.33;100.00
56402;BME280;42299;35.160;26.100;2022-12-29T06:38:16;102262.22;;;14.39;100.00
56402;BME280;42299;35.160;26.100;2022-12-29T06:39:39;102263.44;;;14.53;100.00
56402;BME280;42299;35.160;26.100;2022-12-29T06:41:07;102261.22;;;14.71;100.00
56402;BME280;42299;35.160;26.100;2022-12-29T06:42:49;102260.75;;;14.89;100.00
56402;BME280;42299;35.160;26.100;2022-12-29T06:44:30;102262.94;;;15.08;100.00
56402;BME280;42299;35.160;26.100;2022-12-29T06:45:55;102255.28;;;15.25;100.00
56402;BME280;42299;35.160;26.100;2022-12-29T06:47:17;102262.72;;;15.41;100.00
56402;BME280;42299;35.160;26.100;2022-12-29T06:48:39;102261.28;;;15.57;100.00
56402;BME280;42299;35.160;26.100;2022-12-29T06:50:03;102258.97;;;15.73;100.00
56402;BME280;42299;35.160;26.100;2022-12-29T06:51:25;102258.38;;;15.91;100.00
56402;BME280;42299;35.160;26.100;2022-12-29T06:52:47;102264.94;;;16.10;100.00
56402;BME280;42299;35.160;26.100;2022-12-29T06:54:09;102258.06;;;16.24;100.00
56402;BME280;42299;35.160;26.100;2022-12-29T06:55:31;102253.03;;;16.41;100.00
56402;BME280;42299;35.160;26.100;2022-12-29T06:56:54;102258.53;;;16.54;100.00
56402;BME280;42299;35.160;26.100;2022-12-29T06:58:16;102258.78;;;16.66;100.00
56402;BME280;42299;35.160;26.100;2022-12-29T06:59:39;102257.19;;;16.79;100.00
56402;BME280;42299;35.160;26.100;2022-12-29T07:01:00;102248.41;;;16.89;100.00
56402;BME280;42299;35.160;26.100;2022-12-29T07:02:23;102247.69;;;17.01;100.00
56402;BME280;42299;35.160;26.100;2022-12-29T07:03:45;102247.81;;;17.10;100.00
56402;BME280;42299;35.160;26.100;2022-12-29T07:05:08;102249.69;;;17.20;100.00
56402;BME280;42299;35.160;26.100;2022-12-29T07:06:31;102242.72;;;17.30;100.00
56402;BME280;42299;35.160;26.100;2022-12-29T07:07:53;102242.84;;;17.42;100.00
56402;BME280;42299;35.160;26.100;2022-12-29T07:09:15;102240.28;;;17.52;100.00
56402;BME280;42299;35.160;26.100;2022-12-29T07:10:38;102240.44;;;17.62;100.00
56402;BME280;42299;35.160;26.100;2022-12-29T07:12:01;102235.22;;;17.74;100.00
56402;BME280;42299;35.160;26.100;2022-12-29T07:13:24;102235.31;;;17.83;100.00
56402;BME280;42299;35.160;26.100;2022-12-29T07:14:46;102236.28;;;17.92;100.00
56402;BME280;42299;35.160;26.100;2022-12-29T07:16:08;102234.56;;;18.01;100.00
56402;BME280;42299;35.160;26.100;2022-12-29T07:17:31;102235.56;;;18.10;100.00
56402;BME280;42299;35.160;26.100;2022-12-29T07:18:54;102233.81;;;18.18;100.00
56402;BME280;42299;35.160;26.100;2022-12-29T07:20:17;102243.69;;;18.27;100.00
56402;BME280;42299;35.160;26.100;2022-12-29T07:21:38;102240.22;;;18.36;100.00
56402;BME280;42299;35.160;26.100;2022-12-29T07:23:00;102242.06;;;18.43;100.00
56402;BME280;42299;35.160;26.100;2022-12-29T07:24:24;102246.53;;;18.51;100.00
56402;BME280;42299;35.160;26.100;2022-12-29T07:25:46;102239.53;;;18.62;100.00
56402;BME280;42299;35.160;26.100;2022-12-29T07:27:10;102242.28;;;18.73;100.00
56402;BME280;42299;35.160;26.100;2022-12-29T07:28:31;102243.22;;;18.83;100.00